Larvik — C6VC2 — position and weather

sailwx.info

Track history (hours):
 
Tides and Currents Weather Stations Pressure Air Temp Water Temp Dewpoint Dewpoint Depression Visibility Wind Speed Wind Dir Waves Ship Positions

Larvik

Last reported at 2017-Jun-26 19:00 UTC. Time now 2017-Jun-26 19:00 UTC.
Position N 31°49' W 117°30'.

Length 214 m; draft 11.7 m.

Type: Ship (hazmat cat D). MMSI: 308371000.

Date/timePositionNaut miles runAvg speedWind from/ knotsBaromVisibWave heightAir tempDewpointWater temp
2017-Jun-26 19:00N 31°49' W 117°30'611.3
2017-Jun-26 18:30N 31°44' W 117°29'611.4
2017-Jun-26 18:00N 31°38' W 117°28'611.3
2017-Jun-26 17:30N 31°32' W 117°27'611.1
2017-Jun-26 17:00N 31°27' W 117°27'510.5
2017-Jun-26 16:30N 31°22' W 117°26'610.9
2017-Jun-26 16:00N 31°16' W 117°25'1211.8
2017-Jun-26 14:59N 31°04' W 117°23'35710.9
2017-Jun-25 06:18N 25°39' W 114°37'1211.4
2017-Jun-25 05:18N 25°30' W 114°28'811.3
2017-Jun-25 04:36N 25°24' W 114°22'1211.3
2017-Jun-25 03:33N 25°16' W 114°13'  
Track history (hours):
 
Tides and Currents Weather Stations Pressure Air Temp Water Temp Dewpoint Dewpoint Depression Visibility Wind Speed Wind Dir Waves Ship Positions

Larvik

Last reported at 2017-Jun-26 19:00 UTC. Time now 2017-Jun-26 19:00 UTC.
Position N 31°49' W 117°30'.

Length 214 m; draft 11.7 m.

Type: Ship (hazmat cat D). MMSI: 308371000.

Date/timePositionNaut miles runAvg speedWind from/ knotsBaromVisibWave heightAir tempDewpointWater temp
2017-Jun-26 19:00N 31°49' W 117°30'611.3
2017-Jun-26 18:30N 31°44' W 117°29'611.4
2017-Jun-26 18:00N 31°38' W 117°28'611.3
2017-Jun-26 17:30N 31°32' W 117°27'611.1
2017-Jun-26 17:00N 31°27' W 117°27'510.5
2017-Jun-26 16:30N 31°22' W 117°26'610.9
2017-Jun-26 16:00N 31°16' W 117°25'1211.8
2017-Jun-26 14:59N 31°04' W 117°23'35710.9
2017-Jun-25 06:18N 25°39' W 114°37'1211.4
2017-Jun-25 05:18N 25°30' W 114°28'811.3
2017-Jun-25 04:36N 25°24' W 114°22'1211.3
2017-Jun-25 03:33N 25°16' W 114°13'  

Dump ship's entire track history